sensor_id;sensor_type;location;lat;lon;timestamp;pressure;altitude;pressure_sealevel;temperature;humidity
51229;BME280;37304;52.216;6.874;2022-08-04T00:02:24;101010.31;;;23.01;94.15
51229;BME280;37304;52.216;6.874;2022-08-04T00:13:08;100998.63;;;22.91;95.02
51229;BME280;37304;52.216;6.874;2022-08-04T00:18:14;101003.69;;;22.81;95.39
51229;BME280;37304;52.216;6.874;2022-08-04T00:23:28;100998.03;;;22.73;95.99
51229;BME280;37304;52.216;6.874;2022-08-04T00:28:38;100997.69;;;22.64;96.75
51229;BME280;37304;52.216;6.874;2022-08-04T00:33:46;100989.75;;;22.64;96.20
51229;BME280;37304;52.216;6.874;2022-08-04T00:38:50;100989.75;;;22.64;95.53
51229;BME280;37304;52.216;6.874;2022-08-04T01:01:07;100971.34;;;22.63;93.80
51229;BME280;37304;52.216;6.874;2022-08-04T01:06:36;100970.38;;;22.64;93.61
51229;BME280;37304;52.216;6.874;2022-08-04T01:17:27;100965.28;;;22.61;92.83
51229;BME280;37304;52.216;6.874;2022-08-04T01:23:21;100961.97;;;22.57;93.43
51229;BME280;37304;52.216;6.874;2022-08-04T01:29:13;100950.84;;;22.52;93.90
51229;BME280;37304;52.216;6.874;2022-08-04T01:34:34;100945.75;;;22.49;94.25
51229;BME280;37304;52.216;6.874;2022-08-04T01:40:05;100941.66;;;22.43;94.57
51229;BME280;37304;52.216;6.874;2022-08-04T01:45:15;100941.03;;;22.39;95.15
51229;BME280;37304;52.216;6.874;2022-08-04T01:50:33;100942.25;;;22.34;94.79
51229;BME280;37304;52.216;6.874;2022-08-04T01:56:06;100935.38;;;22.31;94.96
51229;BME280;37304;52.216;6.874;2022-08-04T02:01:11;100936.41;;;22.29;94.64
51229;BME280;37304;52.216;6.874;2022-08-04T02:06:28;100938.88;;;22.32;94.49
51229;BME280;37304;52.216;6.874;2022-08-04T02:12:21;100932.81;;;22.30;94.88
51229;BME280;37304;52.216;6.874;2022-08-04T02:23:09;100922.91;;;22.19;94.50
51229;BME280;37304;52.216;6.874;2022-08-04T02:33:49;100913.88;;;22.08;94.71
51229;BME280;37304;52.216;6.874;2022-08-04T02:39:22;100911.44;;;22.05;95.20
51229;BME280;37304;52.216;6.874;2022-08-04T02:44:28;100898.59;;;21.99;94.92
51229;BME280;37304;52.216;6.874;2022-08-04T02:49:38;100895.19;;;21.97;95.33
51229;BME280;37304;52.216;6.874;2022-08-04T02:54:44;100896.16;;;21.96;94.94
51229;BME280;37304;52.216;6.874;2022-08-04T03:00:04;100885.13;;;21.89;95.92
51229;BME280;37304;52.216;6.874;2022-08-04T03:05:17;100887.09;;;21.86;95.63
51229;BME280;37304;52.216;6.874;2022-08-04T03:44:43;100863.69;;;21.50;100.00
51229;BME280;37304;52.216;6.874;2022-08-04T04:12:20;100856.91;;;21.46;100.00
51229;BME280;37304;52.216;6.874;2022-08-04T04:18:02;100857.66;;;21.48;100.00
51229;BME280;37304;52.216;6.874;2022-08-04T04:51:50;100841.78;;;21.63;100.00
51229;BME280;37304;52.216;6.874;2022-08-04T04:57:16;100850.31;;;21.68;100.00
51229;BME280;37304;52.216;6.874;2022-08-04T05:08:22;100844.03;;;21.84;100.00
51229;BME280;37304;52.216;6.874;2022-08-04T05:13:37;100845.13;;;21.94;100.00
51229;BME280;37304;52.216;6.874;2022-08-04T05:19:15;100842.63;;;22.05;100.00
51229;BME280;37304;52.216;6.874;2022-08-04T05:24:20;100841.06;;;22.16;99.68
51229;BME280;37304;52.216;6.874;2022-08-04T05:29:33;100852.56;;;22.29;98.83
51229;BME280;37304;52.216;6.874;2022-08-04T05:34:41;100850.50;;;22.47;97.47
51229;BME280;37304;52.216;6.874;2022-08-04T05:39:55;100842.50;;;22.62;95.28
51229;BME280;37304;52.216;6.874;2022-08-04T05:45:10;100839.00;;;22.74;94.22
51229;BME280;37304;52.216;6.874;2022-08-04T05:50:22;100847.06;;;22.86;93.26
51229;BME280;37304;52.216;6.874;2022-08-04T05:55:31;100848.56;;;23.03;92.44
51229;BME280;37304;52.216;6.874;2022-08-04T06:00:34;100850.66;;;23.23;90.88
51229;BME280;37304;52.216;6.874;2022-08-04T06:05:35;100844.41;;;23.24;91.14
51229;BME280;37304;52.216;6.874;2022-08-04T06:10:41;100846.09;;;23.38;90.35
51229;BME280;37304;52.216;6.874;2022-08-04T06:15:46;100846.84;;;23.78;87.73
51229;BME280;37304;52.216;6.874;2022-08-04T06:20:53;100854.88;;;23.89;86.47
51229;BME280;37304;52.216;6.874;2022-08-04T06:26:00;100846.19;;;24.11;84.91
51229;BME280;37304;52.216;6.874;2022-08-04T06:31:05;100857.25;;;24.29;84.21
51229;BME280;37304;52.216;6.874;2022-08-04T06:36:09;100849.59;;;24.49;83.08
51229;BME280;37304;52.216;6.874;2022-08-04T06:41:11;100847.53;;;24.77;83.36
51229;BME280;37304;52.216;6.874;2022-08-04T06:46:12;100841.25;;;24.90;80.71
51229;BME280;37304;52.216;6.874;2022-08-04T06:51:14;100841.16;;;25.03;79.61
51229;BME280;37304;52.216;6.874;2022-08-04T06:56:19;100838.00;;;25.09;80.95
51229;BME280;37304;52.216;6.874;2022-08-04T07:01:20;100840.66;;;25.09;80.38
51229;BME280;37304;52.216;6.874;2022-08-04T07:06:23;100834.50;;;25.20;79.17
51229;BME280;37304;52.216;6.874;2022-08-04T07:11:26;100833.53;;;25.21;78.79
51229;BME280;37304;52.216;6.874;2022-08-04T07:16:28;100831.72;;;25.33;78.48
51229;BME280;37304;52.216;6.874;2022-08-04T07:21:30;100852.28;;;25.65;80.34
51229;BME280;37304;52.216;6.874;2022-08-04T07:26:30;100860.25;;;26.09;75.64
51229;BME280;37304;52.216;6.874;2022-08-04T07:31:32;100856.94;;;26.49;75.02
51229;BME280;37304;52.216;6.874;2022-08-04T07:36:34;100860.25;;;26.84;70.83
51229;BME280;37304;52.216;6.874;2022-08-04T07:41:35;100865.94;;;27.22;70.61
51229;BME280;37304;52.216;6.874;2022-08-04T07:46:35;100863.63;;;27.48;67.18
51229;BME280;37304;52.216;6.874;2022-08-04T07:51:38;100852.91;;;27.69;66.09
51229;BME280;37304;52.216;6.874;2022-08-04T07:56:40;100862.78;;;28.08;65.52
51229;BME280;37304;52.216;6.874;2022-08-04T08:01:41;100853.81;;;28.29;63.16
51229;BME280;37304;52.216;6.874;2022-08-04T08:06:42;100851.53;;;28.54;59.97
51229;BME280;37304;52.216;6.874;2022-08-04T08:11:46;100857.13;;;28.70;59.62
51229;BME280;37304;52.216;6.874;2022-08-04T08:16:49;100856.13;;;28.91;58.87
51229;BME280;37304;52.216;6.874;2022-08-04T08:21:51;100856.13;;;28.91;57.98
51229;BME280;37304;52.216;6.874;2022-08-04T08:26:52;100843.22;;;29.52;59.78
51229;BME280;37304;52.216;6.874;2022-08-04T08:31:53;100849.06;;;29.84;57.56
51229;BME280;37304;52.216;6.874;2022-08-04T08:37:25;100836.81;;;29.81;57.05
51229;BME280;37304;52.216;6.874;2022-08-04T08:48:29;100847.47;;;30.54;55.03
51229;BME280;37304;52.216;6.874;2022-08-04T09:05:07;100856.53;;;31.40;52.56
51229;BME280;37304;52.216;6.874;2022-08-04T09:16:34;100863.00;;;31.72;53.63
51229;BME280;37304;52.216;6.874;2022-08-04T09:22:12;100866.25;;;32.09;54.10
51229;BME280;37304;52.216;6.874;2022-08-04T09:27:49;100869.00;;;32.34;52.19
51229;BME280;37304;52.216;6.874;2022-08-04T09:49:13;100855.97;;;33.67;47.17
51229;BME280;37304;52.216;6.874;2022-08-04T10:00:16;100866.56;;;34.00;47.64
51229;BME280;37304;52.216;6.874;2022-08-04T10:06:05;100873.69;;;33.30;46.17
51229;BME280;37304;52.216;6.874;2022-08-04T10:17:06;100860.06;;;34.33;43.48
51229;BME280;37304;52.216;6.874;2022-08-04T10:22:26;100858.84;;;34.59;44.03
51229;BME280;37304;52.216;6.874;2022-08-04T10:28:14;100868.28;;;35.45;44.37
51229;BME280;37304;52.216;6.874;2022-08-04T10:34:01;100868.00;;;35.69;43.00
51229;BME280;37304;52.216;6.874;2022-08-04T10:39:14;100870.03;;;35.89;43.23
51229;BME280;37304;52.216;6.874;2022-08-04T10:49:45;100879.88;;;35.75;40.75
51229;BME280;37304;52.216;6.874;2022-08-04T10:55:12;100871.25;;;36.30;40.90
51229;BME280;37304;52.216;6.874;2022-08-04T11:00:40;100869.91;;;35.76;42.00
51229;BME280;37304;52.216;6.874;2022-08-04T11:05:59;100864.75;;;36.75;39.76
51229;BME280;37304;52.216;6.874;2022-08-04T11:11:20;100874.13;;;36.79;36.64
51229;BME280;37304;52.216;6.874;2022-08-04T11:16:54;100868.66;;;36.72;36.13
51229;BME280;37304;52.216;6.874;2022-08-04T11:22:02;100877.78;;;36.36;37.13
51229;BME280;37304;52.216;6.874;2022-08-04T11:27:28;100878.16;;;35.89;37.69
51229;BME280;37304;52.216;6.874;2022-08-04T11:39:23;100886.00;;;34.72;40.01
51229;BME280;37304;52.216;6.874;2022-08-04T11:50:54;100933.97;;;33.68;44.05
51229;BME280;37304;52.216;6.874;2022-08-04T11:56:03;100975.06;;;32.64;57.23
51229;BME280;37304;52.216;6.874;2022-08-04T12:07:06;101052.31;;;29.49;78.95
51229;BME280;37304;52.216;6.874;2022-08-04T12:18:38;101080.38;;;27.63;92.48
51229;BME280;37304;52.216;6.874;2022-08-04T12:23:51;101068.22;;;26.95;100.00
51229;BME280;37304;52.216;6.874;2022-08-04T12:28:59;101053.91;;;26.52;100.00
51229;BME280;37304;52.216;6.874;2022-08-04T12:39:39;101014.88;;;26.19;100.00
51229;BME280;37304;52.216;6.874;2022-08-04T12:44:47;100997.88;;;25.97;100.00
51229;BME280;37304;52.216;6.874;2022-08-04T12:49:59;100983.50;;;25.99;100.00
51229;BME280;37304;52.216;6.874;2022-08-04T12:55:14;100984.94;;;26.15;100.00
51229;BME280;37304;52.216;6.874;2022-08-04T13:00:28;101018.81;;;25.67;100.00
51229;BME280;37304;52.216;6.874;2022-08-04T13:05:32;101029.22;;;25.70;100.00
51229;BME280;37304;52.216;6.874;2022-08-04T13:10:39;101012.19;;;25.62;100.00
51229;BME280;37304;52.216;6.874;2022-08-04T13:15:55;100989.84;;;25.28;100.00
51229;BME280;37304;52.216;6.874;2022-08-04T13:21:08;100963.25;;;25.17;100.00
51229;BME280;37304;52.216;6.874;2022-08-04T13:26:15;100957.19;;;25.15;100.00
51229;BME280;37304;52.216;6.874;2022-08-04T13:31:18;100970.50;;;25.15;100.00
51229;BME280;37304;52.216;6.874;2022-08-04T13:36:24;100980.72;;;25.78;100.00
51229;BME280;37304;52.216;6.874;2022-08-04T13:41:28;100995.63;;;26.92;94.83
51229;BME280;37304;52.216;6.874;2022-08-04T13:46:37;100989.75;;;28.12;84.09
51229;BME280;37304;52.216;6.874;2022-08-04T13:51:38;100990.66;;;27.82;83.74
51229;BME280;37304;52.216;6.874;2022-08-04T13:56:45;100993.69;;;27.67;81.60
51229;BME280;37304;52.216;6.874;2022-08-04T14:01:57;100994.09;;;27.63;84.71
51229;BME280;37304;52.216;6.874;2022-08-04T14:07:17;101006.78;;;27.49;83.13
51229;BME280;37304;52.216;6.874;2022-08-04T14:12:20;100996.38;;;27.46;84.00
51229;BME280;37304;52.216;6.874;2022-08-04T14:17:25;100992.09;;;27.12;84.46
51229;BME280;37304;52.216;6.874;2022-08-04T14:27:53;100990.41;;;26.79;86.12
51229;BME280;37304;52.216;6.874;2022-08-04T14:33:10;100993.53;;;26.63;86.10
51229;BME280;37304;52.216;6.874;2022-08-04T14:38:20;100993.03;;;27.01;85.48
51229;BME280;37304;52.216;6.874;2022-08-04T14:43:31;100998.16;;;27.88;80.83
51229;BME280;37304;52.216;6.874;2022-08-04T14:49:11;101000.78;;;27.78;77.67
51229;BME280;37304;52.216;6.874;2022-08-04T14:54:14;101000.25;;;27.53;78.04
51229;BME280;37304;52.216;6.874;2022-08-04T14:59:15;100997.00;;;27.90;75.93
51229;BME280;37304;52.216;6.874;2022-08-04T15:04:23;101003.31;;;28.21;74.48
51229;BME280;37304;52.216;6.874;2022-08-04T15:09:39;100999.84;;;28.59;75.77
51229;BME280;37304;52.216;6.874;2022-08-04T15:14:47;100991.44;;;28.13;69.06
51229;BME280;37304;52.216;6.874;2022-08-04T15:20:14;101000.00;;;28.68;66.92
51229;BME280;37304;52.216;6.874;2022-08-04T15:25:25;100983.38;;;28.44;66.53
51229;BME280;37304;52.216;6.874;2022-08-04T15:30:53;100988.44;;;28.28;68.20
51229;BME280;37304;52.216;6.874;2022-08-04T15:41:45;100982.72;;;28.11;69.50
51229;BME280;37304;52.216;6.874;2022-08-04T15:52:17;100975.84;;;28.09;67.00
51229;BME280;37304;52.216;6.874;2022-08-04T15:58:15;100975.41;;;28.13;65.54
51229;BME280;37304;52.216;6.874;2022-08-04T16:04:23;100976.94;;;27.96;65.81
51229;BME280;37304;52.216;6.874;2022-08-04T16:09:34;100986.88;;;27.84;65.71
51229;BME280;37304;52.216;6.874;2022-08-04T16:14:45;100970.75;;;27.96;63.39
51229;BME280;37304;52.216;6.874;2022-08-04T16:20:00;100973.28;;;28.07;62.03
51229;BME280;37304;52.216;6.874;2022-08-04T16:25:07;100986.22;;;28.02;61.31
51229;BME280;37304;52.216;6.874;2022-08-04T16:30:26;100984.81;;;27.98;62.89
51229;BME280;37304;52.216;6.874;2022-08-04T16:35:34;100993.91;;;27.85;61.79
51229;BME280;37304;52.216;6.874;2022-08-04T16:40:52;100993.63;;;27.88;61.73
51229;BME280;37304;52.216;6.874;2022-08-04T16:51:06;100994.44;;;27.79;59.95
51229;BME280;37304;52.216;6.874;2022-08-04T16:56:35;100997.06;;;27.69;60.73
51229;BME280;37304;52.216;6.874;2022-08-04T17:01:53;100997.59;;;27.42;60.40
51229;BME280;37304;52.216;6.874;2022-08-04T17:07:04;100988.78;;;27.20;60.56
51229;BME280;37304;52.216;6.874;2022-08-04T17:12:12;100998.16;;;27.14;59.74
51229;BME280;37304;52.216;6.874;2022-08-04T17:17:23;100992.97;;;27.13;58.85
51229;BME280;37304;52.216;6.874;2022-08-04T17:28:01;100988.47;;;26.81;59.44
51229;BME280;37304;52.216;6.874;2022-08-04T17:33:14;100989.44;;;26.91;59.22
51229;BME280;37304;52.216;6.874;2022-08-04T17:38:44;100990.28;;;26.59;60.63
51229;BME280;37304;52.216;6.874;2022-08-04T17:43:48;101000.72;;;26.51;61.04
51229;BME280;37304;52.216;6.874;2022-08-04T17:54:33;101002.72;;;26.37;61.89
51229;BME280;37304;52.216;6.874;2022-08-04T17:59:41;100998.13;;;26.16;62.13
51229;BME280;37304;52.216;6.874;2022-08-04T18:04:51;101011.94;;;25.87;62.19
51229;BME280;37304;52.216;6.874;2022-08-04T18:09:56;101017.50;;;25.84;62.29
51229;BME280;37304;52.216;6.874;2022-08-04T18:15:30;101015.09;;;25.70;63.21
51229;BME280;37304;52.216;6.874;2022-08-04T18:20:46;101022.59;;;25.53;63.79
51229;BME280;37304;52.216;6.874;2022-08-04T18:26:13;101040.38;;;25.17;63.19
51229;BME280;37304;52.216;6.874;2022-08-04T18:31:54;101037.16;;;25.00;64.38
51229;BME280;37304;52.216;6.874;2022-08-04T18:37:12;101042.13;;;24.81;65.29
51229;BME280;37304;52.216;6.874;2022-08-04T18:42:19;101044.09;;;24.66;66.93
51229;BME280;37304;52.216;6.874;2022-08-04T18:47:22;101047.66;;;24.53;67.78
51229;BME280;37304;52.216;6.874;2022-08-04T18:52:35;101055.91;;;24.37;69.78
51229;BME280;37304;52.216;6.874;2022-08-04T18:57:37;101063.28;;;24.21;70.64
51229;BME280;37304;52.216;6.874;2022-08-04T19:02:44;101077.81;;;24.02;71.10
51229;BME280;37304;52.216;6.874;2022-08-04T19:07:52;101088.84;;;23.83;72.52
51229;BME280;37304;52.216;6.874;2022-08-04T19:12:54;101093.41;;;23.81;72.50
51229;BME280;37304;52.216;6.874;2022-08-04T19:17:55;101093.84;;;23.62;73.58
51229;BME280;37304;52.216;6.874;2022-08-04T19:22:59;101096.91;;;23.55;73.64
51229;BME280;37304;52.216;6.874;2022-08-04T19:28:07;101103.00;;;23.30;75.28
51229;BME280;37304;52.216;6.874;2022-08-04T19:33:09;101112.38;;;23.21;76.63
51229;BME280;37304;52.216;6.874;2022-08-04T19:38:13;101114.28;;;23.19;77.18
51229;BME280;37304;52.216;6.874;2022-08-04T19:43:18;101117.19;;;23.02;79.06
51229;BME280;37304;52.216;6.874;2022-08-04T19:54:20;101124.25;;;22.74;80.76
51229;BME280;37304;52.216;6.874;2022-08-04T19:59:46;101126.94;;;22.59;82.14
51229;BME280;37304;52.216;6.874;2022-08-04T20:04:53;101128.38;;;22.50;82.74
51229;BME280;37304;52.216;6.874;2022-08-04T20:10:04;101139.63;;;22.39;83.64
51229;BME280;37304;52.216;6.874;2022-08-04T20:15:08;101139.63;;;22.25;85.00
51229;BME280;37304;52.216;6.874;2022-08-04T20:20:10;101138.75;;;22.24;85.28
51229;BME280;37304;52.216;6.874;2022-08-04T20:25:13;101142.06;;;22.14;86.85
51229;BME280;37304;52.216;6.874;2022-08-04T20:30:25;101147.53;;;21.96;88.23
51229;BME280;37304;52.216;6.874;2022-08-04T20:35:30;101139.78;;;21.93;88.25
51229;BME280;37304;52.216;6.874;2022-08-04T20:40:34;101134.16;;;21.83;89.82
51229;BME280;37304;52.216;6.874;2022-08-04T20:45:40;101147.69;;;21.78;90.41
51229;BME280;37304;52.216;6.874;2022-08-04T20:50:52;101163.06;;;21.72;90.88
51229;BME280;37304;52.216;6.874;2022-08-04T20:56:21;101161.09;;;21.75;91.94
51229;BME280;37304;52.216;6.874;2022-08-04T21:01:32;101158.88;;;21.67;92.07
51229;BME280;37304;52.216;6.874;2022-08-04T21:06:43;101168.03;;;21.62;93.26
51229;BME280;37304;52.216;6.874;2022-08-04T21:11:48;101157.00;;;21.53;94.11
51229;BME280;37304;52.216;6.874;2022-08-04T21:17:13;101171.63;;;21.45;95.47
51229;BME280;37304;52.216;6.874;2022-08-04T21:22:44;101163.94;;;21.40;95.26
51229;BME280;37304;52.216;6.874;2022-08-04T21:27:49;101166.53;;;21.42;94.89
51229;BME280;37304;52.216;6.874;2022-08-04T21:32:49;101175.56;;;21.37;94.77
51229;BME280;37304;52.216;6.874;2022-08-04T21:38:11;101192.38;;;21.36;95.33
51229;BME280;37304;52.216;6.874;2022-08-04T21:43:11;101197.72;;;21.35;95.07
51229;BME280;37304;52.216;6.874;2022-08-04T21:48:17;101202.84;;;21.38;95.18
51229;BME280;37304;52.216;6.874;2022-08-04T21:53:18;101208.25;;;21.20;96.89
51229;BME280;37304;52.216;6.874;2022-08-04T21:58:19;101217.63;;;21.26;97.15
51229;BME280;37304;52.216;6.874;2022-08-04T22:03:26;101230.25;;;21.21;96.69
51229;BME280;37304;52.216;6.874;2022-08-04T22:08:29;101242.59;;;21.20;96.40
51229;BME280;37304;52.216;6.874;2022-08-04T22:13:34;101237.72;;;21.13;96.82
51229;BME280;37304;52.216;6.874;2022-08-04T22:18:37;101254.78;;;21.07;100.00
51229;BME280;37304;52.216;6.874;2022-08-04T22:23:40;101244.59;;;20.83;100.00
51229;BME280;37304;52.216;6.874;2022-08-04T22:28:44;101259.63;;;20.65;100.00
51229;BME280;37304;52.216;6.874;2022-08-04T22:33:48;101264.53;;;20.37;100.00
51229;BME280;37304;52.216;6.874;2022-08-04T22:38:51;101278.50;;;20.04;100.00
51229;BME280;37304;52.216;6.874;2022-08-04T22:43:54;101299.84;;;19.81;100.00
51229;BME280;37304;52.216;6.874;2022-08-04T22:48:55;101355.47;;;19.57;100.00
51229;BME280;37304;52.216;6.874;2022-08-04T22:53:56;101345.56;;;19.43;100.00
51229;BME280;37304;52.216;6.874;2022-08-04T22:58:56;101270.03;;;19.03;100.00
51229;BME280;37304;52.216;6.874;2022-08-04T23:03:57;101208.41;;;18.68;100.00
51229;BME280;37304;52.216;6.874;2022-08-04T23:08:57;101214.03;;;18.39;100.00
51229;BME280;37304;52.216;6.874;2022-08-04T23:13:57;101184.13;;;18.21;100.00
51229;BME280;37304;52.216;6.874;2022-08-04T23:18:58;101147.91;;;18.07;100.00
51229;BME280;37304;52.216;6.874;2022-08-04T23:23:59;101175.78;;;18.11;100.00
51229;BME280;37304;52.216;6.874;2022-08-04T23:29:00;101180.56;;;18.01;100.00
51229;BME280;37304;52.216;6.874;2022-08-04T23:34:01;101178.03;;;17.98;100.00
51229;BME280;37304;52.216;6.874;2022-08-04T23:39:03;101184.56;;;17.89;100.00
51229;BME280;37304;52.216;6.874;2022-08-04T23:44:04;101216.16;;;17.88;100.00
51229;BME280;37304;52.216;6.874;2022-08-04T23:49:07;101232.59;;;17.93;100.00
51229;BME280;37304;52.216;6.874;2022-08-04T23:54:07;101247.22;;;17.78;100.00
51229;BME280;37304;52.216;6.874;2022-08-04T23:59:08;101228.16;;;17.73;100.00
